createdAt,value
2019-03-27T00:00:39.279Z,58.20
2019-03-27T00:05:44.469Z,58.40
2019-03-27T00:10:49.519Z,58.30
2019-03-27T00:15:54.318Z,58.20
2019-03-27T00:21:00.746Z,58.20
2019-03-27T00:26:05.278Z,58.40
2019-03-27T00:31:11.879Z,58.10
2019-03-27T00:36:16.008Z,58.00
2019-03-27T00:41:20.790Z,58.30
2019-03-27T00:46:25.254Z,58.00
2019-03-27T00:51:29.767Z,58.10
2019-03-27T00:56:34.703Z,57.90
2019-03-27T01:01:39.223Z,58.10
2019-03-27T01:06:44.078Z,58.00
2019-03-27T01:11:48.563Z,58.10
2019-03-27T01:16:53.110Z,58.20
2019-03-27T01:21:57.577Z,58.00
2019-03-27T01:27:02.436Z,58.20
2019-03-27T01:32:07.307Z,57.90
2019-03-27T01:37:11.823Z,58.10
2019-03-27T01:42:17.006Z,58.20
2019-03-27T01:47:22.750Z,58.10
2019-03-27T01:52:27.473Z,58.40
2019-03-27T01:57:31.996Z,58.20
2019-03-27T02:02:36.787Z,58.20
2019-03-27T02:07:41.635Z,58.30
2019-03-27T02:12:46.235Z,58.10
2019-03-27T02:17:51.183Z,58.30
2019-03-27T02:22:55.705Z,58.40
2019-03-27T02:28:00.342Z,58.20
2019-03-27T02:33:04.790Z,58.40
2019-03-27T02:38:09.684Z,58.60
2019-03-27T02:43:14.651Z,58.20
2019-03-27T02:48:19.572Z,58.40
2019-03-27T02:53:24.271Z,58.20
2019-03-27T02:58:29.064Z,58.40
2019-03-27T03:03:33.868Z,58.40
2019-03-27T03:08:38.719Z,58.40
2019-03-27T03:13:43.772Z,58.50
2019-03-27T03:18:48.849Z,58.30
2019-03-27T03:23:53.462Z,58.40
2019-03-27T03:28:58.477Z,58.70
2019-03-27T03:34:03.185Z,58.50
2019-03-27T03:39:10.177Z,58.40
2019-03-27T03:44:14.754Z,58.30
2019-03-27T03:49:19.414Z,58.20
2019-03-27T03:54:24.964Z,58.40
2019-03-27T03:59:35.470Z,58.20
2019-03-27T04:04:41.814Z,58.30
2019-03-27T04:09:46.317Z,58.10
2019-03-27T04:14:51.219Z,58.30
2019-03-27T04:19:56.287Z,58.70
2019-03-27T04:25:00.768Z,58.10
2019-03-27T04:30:05.499Z,58.30
2019-03-27T04:35:12.031Z,58.20
2019-03-27T04:40:16.816Z,58.10
2019-03-27T04:45:21.952Z,58.10
2019-03-27T04:50:26.867Z,58.30
2019-03-27T04:55:31.375Z,58.10
2019-03-27T05:00:36.388Z,57.90
2019-03-27T05:05:41.444Z,58.20
2019-03-27T05:10:46.271Z,58.10
2019-03-27T05:15:50.785Z,58.10
2019-03-27T05:20:55.579Z,58.20
2019-03-27T05:25:59.991Z,58.20
2019-03-27T05:31:04.403Z,57.90
2019-03-27T05:36:08.910Z,58.00
2019-03-27T05:41:13.741Z,58.20
2019-03-27T05:46:18.649Z,58.00
2019-03-27T05:51:23.459Z,58.20
2019-03-27T05:56:28.494Z,58.30
2019-03-27T06:01:33.335Z,58.40
2019-03-27T06:06:38.183Z,58.10
2019-03-27T06:11:43.064Z,58.10
2019-03-27T06:16:47.578Z,58.30
2019-03-27T06:21:52.112Z,58.40
2019-03-27T06:26:56.877Z,58.70
2019-03-27T06:32:02.067Z,58.30
2019-03-27T06:37:07.271Z,58.30
2019-03-27T06:42:12.323Z,58.30
2019-03-27T06:47:17.030Z,58.50
2019-03-27T06:52:21.827Z,58.60
2019-03-27T06:57:26.509Z,58.40
2019-03-27T07:02:31.411Z,58.70
2019-03-27T07:07:36.202Z,58.70
2019-03-27T07:12:40.999Z,58.70
2019-03-27T07:17:45.846Z,58.60
2019-03-27T07:22:50.699Z,58.60
2019-03-27T07:27:55.498Z,58.70
2019-03-27T07:32:59.975Z,58.80
2019-03-27T07:38:04.836Z,58.80
2019-03-27T07:43:09.608Z,59.00
2019-03-27T07:48:14.166Z,58.80
2019-03-27T07:53:22.222Z,58.90
2019-03-27T07:58:26.164Z,58.80
2019-03-27T08:03:30.571Z,58.70
2019-03-27T08:08:35.320Z,58.70
2019-03-27T08:13:40.242Z,58.80
2019-03-27T08:18:44.652Z,58.80
2019-03-27T08:23:49.463Z,58.90
2019-03-27T08:28:54.231Z,58.70
2019-03-27T08:33:59.075Z,58.90
2019-03-27T08:39:04.465Z,58.90
2019-03-27T08:44:09.555Z,59.00
2019-03-27T08:49:22.013Z,58.90
2019-03-27T08:54:20.218Z,58.80
2019-03-27T08:59:24.707Z,59.10
2019-03-27T09:04:29.143Z,58.90
2019-03-27T09:09:33.933Z,59.20
2019-03-27T09:14:39.091Z,59.10
2019-03-27T09:19:43.835Z,59.10
2019-03-27T09:24:48.341Z,59.00
2019-03-27T09:29:52.763Z,59.40
2019-03-27T09:34:57.259Z,59.30
2019-03-27T09:40:02.503Z,59.10
2019-03-27T09:45:08.724Z,59.50
2019-03-27T09:50:13.402Z,59.50
2019-03-27T09:55:18.791Z,59.60
2019-03-27T10:00:56.104Z,59.70
2019-03-27T10:06:01.304Z,59.80
2019-03-27T10:11:06.306Z,59.60
2019-03-27T10:16:11.187Z,60.00
2019-03-27T10:21:16.023Z,59.60
2019-03-27T10:26:20.918Z,59.70
2019-03-27T10:31:25.470Z,59.80
2019-03-27T10:36:30.643Z,60.50
2019-03-27T10:41:35.491Z,60.40
2019-03-27T10:46:40.763Z,60.40
2019-03-27T10:51:46.223Z,60.60
2019-03-27T10:56:51.063Z,60.50
2019-03-27T11:01:55.915Z,60.60
2019-03-27T11:07:00.776Z,60.50
2019-03-27T11:12:05.671Z,60.80
2019-03-27T11:17:10.527Z,60.80
2019-03-27T11:22:15.363Z,59.80
2019-03-27T11:27:19.927Z,60.40
2019-03-27T11:32:24.439Z,59.90
2019-03-27T11:37:28.879Z,60.60
2019-03-27T11:42:34.239Z,60.20
2019-03-27T11:47:38.828Z,60.10
2019-03-27T11:52:43.671Z,58.90
2019-03-27T11:57:48.277Z,59.10
2019-03-27T12:02:53.491Z,61.20
2019-03-27T12:07:58.003Z,59.10
2019-03-27T12:13:03.445Z,60.70
2019-03-27T12:18:09.515Z,60.80
2019-03-27T12:23:14.545Z,56.30
2019-03-27T12:28:19.222Z,58.90
2019-03-27T12:33:23.996Z,60.10
2019-03-27T12:38:29.147Z,59.80
2019-03-27T12:43:33.667Z,59.70
2019-03-27T12:48:38.096Z,58.00
2019-03-27T12:53:43.239Z,57.60
2019-03-27T12:58:47.837Z,55.10
2019-03-27T13:03:53.209Z,57.60
2019-03-27T13:08:58.639Z,59.50
2019-03-27T13:14:03.127Z,65.80
2019-03-27T13:19:07.728Z,58.50
2019-03-27T13:24:15.802Z,59.40
2019-03-27T13:29:20.270Z,56.40
2019-03-27T13:34:25.254Z,58.60
2019-03-27T13:39:29.987Z,57.30
2019-03-27T13:44:37.202Z,58.90
2019-03-27T13:49:41.177Z,58.50
2019-03-27T13:54:45.971Z,58.30
2019-03-27T13:59:50.957Z,59.00
2019-03-27T14:04:56.369Z,58.00
2019-03-27T14:10:00.790Z,57.80
2019-03-27T14:15:06.386Z,57.80
2019-03-27T14:20:13.059Z,54.30
2019-03-27T14:25:17.994Z,53.60
2019-03-27T14:30:51.167Z,55.00
2019-03-27T14:35:55.855Z,54.80
2019-03-27T14:41:00.311Z,55.80
2019-03-27T14:46:05.458Z,55.40
2019-03-27T14:51:10.614Z,55.80
2019-03-27T14:56:15.550Z,53.20
2019-03-27T15:01:20.061Z,53.00
2019-03-27T15:06:24.845Z,54.40
2019-03-27T15:11:29.258Z,55.70
2019-03-27T15:16:34.106Z,56.20
2019-03-27T15:21:38.906Z,54.20
2019-03-27T15:26:43.491Z,52.30
2019-03-27T15:31:48.310Z,52.50
2019-03-27T15:36:52.819Z,53.30
2019-03-27T15:41:57.334Z,55.10
2019-03-27T15:47:02.688Z,57.50
2019-03-27T15:52:07.546Z,55.60
2019-03-27T15:57:11.939Z,54.00
2019-03-27T16:02:16.847Z,55.70
2019-03-27T16:07:22.124Z,54.90
2019-03-27T16:12:26.967Z,53.70
2019-03-27T16:17:31.803Z,52.60
2019-03-27T16:22:50.039Z,52.20
2019-03-27T16:27:43.226Z,52.80
2019-03-27T16:32:47.723Z,53.20
2019-03-27T16:37:53.239Z,53.20
2019-03-27T16:42:57.699Z,53.30
2019-03-27T16:48:02.360Z,57.80
2019-03-27T16:53:07.696Z,55.10
2019-03-27T16:58:12.510Z,54.70
2019-03-27T17:03:17.314Z,56.60
2019-03-27T17:08:22.537Z,55.50
2019-03-27T17:13:27.053Z,58.30
2019-03-27T17:18:32.232Z,56.90
2019-03-27T17:23:37.134Z,56.50
2019-03-27T17:28:42.151Z,55.80
2019-03-27T17:33:46.973Z,55.70
2019-03-27T17:38:55.231Z,56.70
2019-03-27T17:44:00.064Z,55.80
2019-03-27T17:49:04.906Z,55.70
2019-03-27T17:54:20.461Z,55.90
2019-03-27T17:59:19.688Z,55.80
2019-03-27T18:04:22.717Z,55.80
2019-03-27T18:09:28.034Z,55.70
2019-03-27T18:14:33.527Z,55.90
2019-03-27T18:19:38.461Z,55.80
2019-03-27T18:24:44.011Z,55.80
2019-03-27T18:29:48.806Z,58.40
2019-03-27T18:34:53.654Z,61.40
2019-03-27T18:39:58.576Z,61.90
2019-03-27T18:45:03.455Z,62.00
2019-03-27T18:50:08.338Z,61.80
2019-03-27T18:55:25.731Z,61.60
2019-03-27T19:00:20.131Z,61.30
2019-03-27T19:05:24.906Z,61.20
2019-03-27T19:10:29.891Z,61.20
2019-03-27T19:15:34.845Z,60.10
2019-03-27T19:20:39.844Z,59.70
2019-03-27T19:25:45.006Z,59.50
2019-03-27T19:30:49.903Z,58.90
2019-03-27T19:35:54.402Z,58.00
2019-03-27T19:40:58.930Z,57.90
2019-03-27T19:46:03.871Z,57.60
2019-03-27T19:51:11.220Z,57.40
2019-03-27T19:56:15.118Z,57.20
2019-03-27T20:01:19.680Z,57.30
2019-03-27T20:06:24.163Z,57.10
2019-03-27T20:11:28.729Z,57.00
2019-03-27T20:16:33.229Z,57.00
2019-03-27T20:21:38.443Z,57.10
2019-03-27T20:26:43.172Z,57.00
2019-03-27T20:31:48.014Z,56.80
2019-03-27T20:36:52.868Z,56.80
2019-03-27T20:41:57.915Z,56.90
2019-03-27T20:47:02.322Z,56.40
2019-03-27T20:52:06.877Z,56.60
2019-03-27T20:57:11.350Z,56.40
2019-03-27T21:02:16.187Z,56.50
2019-03-27T21:07:24.415Z,56.50
2019-03-27T21:12:28.452Z,56.30
2019-03-27T21:17:33.154Z,56.30
2019-03-27T21:22:37.970Z,56.30
2019-03-27T21:27:42.525Z,56.60
2019-03-27T21:32:47.543Z,56.50
2019-03-27T21:37:52.379Z,56.30
2019-03-27T21:42:56.904Z,56.40
2019-03-27T21:48:01.819Z,56.40
2019-03-27T21:53:06.310Z,56.10
2019-03-27T21:58:11.148Z,56.20
2019-03-27T22:03:16.355Z,56.30
2019-03-27T22:08:21.234Z,56.00
2019-03-27T22:13:26.206Z,56.20
2019-03-27T22:18:31.002Z,56.00
2019-03-27T22:23:35.800Z,56.10
2019-03-27T22:28:40.570Z,56.10
2019-03-27T22:33:45.183Z,56.20
2019-03-27T22:38:50.031Z,56.30
2019-03-27T22:43:54.842Z,56.30
2019-03-27T22:48:59.442Z,56.10
2019-03-27T22:54:04.579Z,56.20
2019-03-27T22:59:09.535Z,56.30
2019-03-27T23:04:14.078Z,56.20
2019-03-27T23:09:18.510Z,56.40
2019-03-27T23:14:23.643Z,56.30
2019-03-27T23:19:28.476Z,56.20
2019-03-27T23:24:32.942Z,56.10
2019-03-27T23:29:37.996Z,56.40
2019-03-27T23:34:42.844Z,56.50
2019-03-27T23:39:47.642Z,56.40
2019-03-27T23:44:52.138Z,56.40
2019-03-27T23:49:57.188Z,56.30
2019-03-27T23:55:01.933Z,56.20
